Time;durP1;ratioP1;P1;durP2;ratioP2;P2;SDS_P1;SDS_P2;PMS_P1;PMS_P2;Temp;Humidity;BMP_temperature;BMP_pressure;BME280_temperature;BME280_humidity;BME280_pressure;Samples;Min_cycle;Max_cycle;Signal;HPM_P1;HPM_P2
2023/10/08 04:22:33;;;;;;;7.85;3.42;;;;;;;14.00;64.24;101063.00;5109724;27;20327;-68
2023/10/08 04:25:02;;;;;;;5.07;2.70;;;;;;;13.97;65.31;101058.00;5109658;28;20089;-68
2023/10/08 04:27:30;;;;;;;7.45;2.50;;;;;;;13.94;65.28;101058.34;5109678;28;20056;-68
2023/10/08 04:29:55;;;;;;;;;;;;;;;13.91;65.69;101053.34;5110113;28;20074;-68
2023/10/08 04:32:24;;;;;;;5.60;2.40;;;;;;;13.82;66.19;101045.34;5109657;28;19928;-68
2023/10/08 04:34:50;;;;;;;4.93;2.67;;;;;;;13.80;66.77;101047.34;5109338;28;20119;-68
2023/10/08 04:37:20;;;;;;;6.72;3.03;;;;;;;13.76;66.96;101055.94;5109515;28;20451;-68
2023/10/08 04:39:48;;;;;;;5.85;2.70;;;;;;;13.69;67.46;101050.44;5109471;28;20043;-68
2023/10/08 04:42:14;;;;;;;6.45;3.05;;;;;;;13.74;67.24;101057.94;5109316;28;20040;-68
2023/10/08 04:44:40;;;;;;;4.80;3.00;;;;;;;13.67;67.80;101057.78;5109111;28;20496;-68
2023/10/08 04:47:09;;;;;;;8.15;3.17;;;;;;;13.72;67.19;101060.78;5109294;28;20036;-69
2023/10/08 04:49:37;;;;;;;4.68;2.63;;;;;;;13.72;66.63;101052.75;5109229;28;20599;-69
2023/10/08 04:52:13;;;;;;;4.50;2.78;;;;;;;13.68;66.59;101056.78;5109235;28;20072;-68
2023/10/08 04:54:51;;;;;;;5.00;2.50;;;;;;;13.68;66.91;101064.81;5108956;28;20032;-69
2023/10/08 04:57:18;;;;;;;7.20;3.15;;;;;;;13.71;67.01;101074.34;5109226;28;20371;-68
2023/10/08 04:59:44;;;;;;;6.47;2.67;;;;;;;13.72;66.77;101087.56;5109095;28;20038;-69
2023/10/08 05:02:19;;;;;;;5.78;2.63;;;;;;;13.74;66.96;101084.69;5108928;28;20036;-69
2023/10/08 05:08:00;;;;;;;7.65;3.08;;;;;;;13.63;68.13;101087.75;5109021;28;20043;-69
2023/10/08 05:13:14;;;;;;;5.88;2.88;;;;;;;13.57;70.86;101086.63;5108785;28;20573;-69
2023/10/08 05:16:01;;;;;;;5.70;2.80;;;;;;;13.55;68.99;101092.13;5108651;28;20088;-69
2023/10/08 05:18:53;;;;;;;5.95;2.70;;;;;;;13.52;69.40;101089.81;5108865;28;20048;-69
2023/10/08 05:21:40;;;;;;;4.63;2.38;;;;;;;13.42;70.12;101099.03;5108485;28;20478;-68
2023/10/08 05:24:12;;;;;;;4.82;2.40;;;;;;;13.36;71.05;101097.88;5108369;28;20035;-69
2023/10/08 05:26:49;;;;;;;5.57;2.58;;;;;;;13.28;72.63;101101.41;5108533;28;20058;-69
2023/10/08 05:29:51;;;;;;;7.03;3.35;;;;;;;13.21;72.76;101100.41;5108602;28;20096;-69
2023/10/08 05:37:52;;;;;;;6.35;2.80;;;;;;;13.05;72.43;101084.38;5094825;28;20044;-68
2023/10/08 05:40:54;;;;;;;6.47;2.85;;;;;;;13.03;72.25;101086.34;5094805;28;20036;-69
2023/10/08 05:43:33;;;;;;;5.97;3.05;;;;;;;12.99;72.81;101091.22;5094388;28;20075;-68
2023/10/08 05:46:19;;;;;;;6.60;2.83;;;;;;;12.97;72.26;101089.69;5094525;28;20040;-68
2023/10/08 05:48:45;;;;;;;5.30;2.70;;;;;;;12.96;72.20;101080.00;5094626;28;20449;-69
2023/10/08 05:51:23;;;;;;;4.30;2.53;;;;;;;12.95;71.83;101084.53;5094633;28;20051;-68
2023/10/08 05:53:55;;;;;;;5.63;2.97;;;;;;;12.99;72.23;101096.56;5094367;28;20482;-68
2023/10/08 05:56:42;;;;;;;7.65;2.78;;;;;;;13.01;72.74;101093.72;5094512;28;20048;-68
2023/10/08 05:59:18;;;;;;;6.38;2.67;;;;;;;13.04;72.22;101093.41;5094540;28;20028;-68
2023/10/08 06:01:46;;;;;;;5.30;2.70;;;;;;;13.02;72.62;101101.56;5094377;28;20162;-68
2023/10/08 06:04:31;;;;;;;5.50;2.92;;;;;;;12.99;72.95;101093.91;5094190;28;20044;-68
2023/10/08 06:07:12;;;;;;;7.28;3.10;;;;;;;13.02;72.51;101087.34;5094274;28;20134;-69
2023/10/08 06:09:39;;;;;;;5.25;2.83;;;;;;;13.02;72.55;101096.22;5094332;28;20059;-69
2023/10/08 06:12:19;;;;;;;6.65;2.83;;;;;;;12.99;73.82;101098.41;5094180;28;20047;-53
2023/10/08 06:15:07;;;;;;;5.07;2.58;;;;;;;13.05;74.00;101092.38;5093912;28;20136;-56
2023/10/08 06:20:24;;;;;;;6.38;3.00;;;;;;;13.07;74.96;101092.22;5093889;28;20039;-55
2023/10/08 06:22:50;;;;;;;7.53;3.55;;;;;;;13.03;74.77;101097.06;5093908;28;20036;-54
2023/10/08 06:25:23;;;;;;;6.22;3.13;;;;;;;13.04;74.91;101080.03;5093630;28;20031;-57
2023/10/08 06:27:55;;;;;;;5.32;3.05;;;;;;;13.06;75.66;101090.53;5093990;28;20082;-58
2023/10/08 06:30:22;;;;;;;5.35;2.85;;;;;;;13.07;75.88;101077.00;5093878;28;20081;-58
2023/10/08 06:32:50;;;;;;;6.22;2.58;;;;;;;13.10;75.98;101082.00;5093754;28;20024;-58
2023/10/08 06:35:19;;;;;;;4.80;2.72;;;;;;;13.11;75.77;101093.56;5093531;28;20036;-58
2023/10/08 06:37:45;;;;;;;6.70;3.55;;;;;;;13.17;75.89;101090.19;5093799;28;20107;-56
2023/10/08 06:40:40;;;;;;;8.18;3.15;;;;;;;13.18;75.28;101091.88;5093592;28;20043;-57
2023/10/08 06:43:03;;;;;;;5.40;2.50;;;;;;;13.21;74.98;101095.06;5093554;28;20032;-57
2023/10/08 06:45:30;;;;;;;5.00;2.50;;;;;;;13.21;75.46;101094.22;5092446;28;20603;-55
2023/10/08 06:47:57;;;;;;;5.85;2.75;;;;;;;13.26;75.24;101103.41;5093528;28;20038;-54
2023/10/08 06:50:22;;;;;;;7.68;3.47;;;;;;;13.28;75.22;101114.78;5093563;28;20517;-53
2023/10/08 06:52:49;;;;;;;5.00;2.70;;;;;;;13.29;76.83;101118.28;5093301;28;20036;-54
2023/10/08 06:55:17;;;;;;;4.10;2.33;;;;;;;13.31;76.35;101124.31;5093152;28;20043;-57
2023/10/08 06:57:43;;;;;;;5.75;3.15;;;;;;;13.37;76.66;101126.31;5093295;28;20122;-54
2023/10/08 07:00:12;;;;;;;5.95;2.50;;;;;;;13.41;75.27;101122.28;5093213;28;20516;-57
2023/10/08 07:02:39;;;;;;;6.13;3.17;;;;;;;13.46;74.66;101135.16;5093265;28;20051;-57
2023/10/08 07:05:09;;;;;;;4.72;2.92;;;;;;;13.53;74.27;101138.81;5092973;28;20040;-56
2023/10/08 07:07:39;;;;;;;6.30;3.25;;;;;;;13.58;73.16;101139.97;5093216;28;20044;-56
2023/10/08 07:10:10;;;;;;;7.00;3.25;;;;;;;13.63;72.89;101142.16;5093117;28;20044;-54
2023/10/08 07:12:36;;;;;;;5.90;2.85;;;;;;;13.70;72.74;101147.66;5092997;28;20051;-57
2023/10/08 07:15:03;;;;;;;5.43;2.70;;;;;;;13.80;71.97;101161.66;5092846;28;20036;-58
2023/10/08 07:17:40;;;;;;;7.10;2.90;;;;;;;13.84;71.98;101171.88;5093236;28;20040;-53
2023/10/08 07:20:13;;;;;;;5.03;3.05;;;;;;;13.88;72.39;101179.53;5092860;28;20134;-55
2023/10/08 07:22:39;;;;;;;4.60;3.00;;;;;;;13.91;73.68;101168.50;5092538;28;20089;-55
2023/10/08 07:25:09;;;;;;;7.82;3.70;;;;;;;13.93;74.21;101178.03;5092502;28;20100;-55
2023/10/08 07:27:37;;;;;;;8.23;2.90;;;;;;;13.94;75.63;101185.06;5092685;28;20475;-57
2023/10/08 07:30:13;;;;;;;6.43;2.95;;;;;;;13.95;75.18;101178.69;5092734;28;20039;-53
2023/10/08 07:32:41;;;;;;;7.28;2.97;;;;;;;14.00;74.10;101173.66;5092633;28;20127;-52
2023/10/08 07:37:44;;;;;;;7.25;2.85;;;;;;;14.13;73.50;101157.03;5092727;28;20051;-56
2023/10/08 07:40:12;;;;;;;6.47;3.10;;;;;;;14.16;73.67;101153.19;5092494;28;20423;-58
2023/10/08 07:42:37;;;;;;;7.35;3.25;;;;;;;14.28;72.52;101152.63;5092473;28;20090;-54
2023/10/08 07:45:04;;;;;;;7.85;3.10;;;;;;;14.41;70.96;101160.09;5092309;28;20484;-51
2023/10/08 07:47:30;;;;;;;6.50;3.22;;;;;;;14.50;71.55;101150.16;5092460;28;20027;-56
2023/10/08 07:49:55;;;;;;;6.30;2.90;;;;;;;14.55;70.85;101154.00;5092380;28;20510;-52
2023/10/08 07:52:21;;;;;;;7.90;3.38;;;;;;;14.65;70.56;101159.13;5092493;28;20032;-53
2023/10/08 07:54:47;;;;;;;5.55;2.72;;;;;;;14.74;70.07;101152.69;5092024;28;20390;-56
2023/10/08 07:57:17;;;;;;;6.32;3.53;;;;;;;14.90;65.85;101146.38;5091950;28;20130;-56
2023/10/08 07:59:46;;;;;;;6.05;3.10;;;;;;;15.01;65.74;101148.63;5092358;28;20051;-56
2023/10/08 08:02:13;;;;;;;6.75;3.05;;;;;;;15.13;64.88;101157.09;5092148;28;20024;-53
2023/10/08 08:04:50;;;;;;;7.80;3.08;;;;;;;15.17;65.40;101169.13;5092289;28;20036;-52
2023/10/08 08:07:16;;;;;;;5.78;2.88;;;;;;;15.28;67.40;101183.97;5092195;28;20036;-55
2023/10/08 08:09:58;;;;;;;6.78;3.03;;;;;;;15.37;64.80;101181.00;5092129;28;20177;-55
2023/10/08 08:12:25;;;;;;;9.30;3.10;;;;;;;15.57;64.73;101188.53;5092086;28;20060;-57
2023/10/08 08:14:54;;;;;;;8.02;3.53;;;;;;;15.71;63.81;101201.19;5091881;28;20150;-55
2023/10/08 08:17:22;;;;;;;6.15;3.00;;;;;;;15.79;62.81;101190.38;5091916;28;20069;-57
2023/10/08 08:19:51;;;;;;;5.32;2.67;;;;;;;15.98;62.58;101197.88;5092187;28;20413;-58
2023/10/08 08:22:21;;;;;;;4.70;2.58;;;;;;;16.05;61.84;101206.03;5091734;28;20173;-58
2023/10/08 08:25:04;;;;;;;7.55;3.33;;;;;;;16.14;61.50;101212.13;5091846;28;20047;-59
2023/10/08 08:27:33;;;;;;;5.95;2.72;;;;;;;16.31;60.83;101202.88;5091955;28;20043;-57
2023/10/08 08:30:09;;;;;;;7.88;3.10;;;;;;;16.42;60.30;101213.13;5091922;28;20032;-55
2023/10/08 08:32:47;;;;;;;5.03;2.75;;;;;;;16.64;59.00;101215.88;5091850;28;20020;-54
2023/10/08 08:35:16;;;;;;;6.05;2.67;;;;;;;16.73;58.35;101207.50;5091678;28;20079;-58
2023/10/08 08:37:42;;;;;;;6.18;3.03;;;;;;;16.82;57.24;101202.84;5091846;28;20118;-58
2023/10/08 08:40:09;;;;;;;6.72;3.20;;;;;;;16.91;58.05;101200.88;5091888;28;20498;-58
2023/10/08 08:42:38;;;;;;;3.95;2.80;;;;;;;17.03;56.69;101205.56;5091672;28;20040;-58
2023/10/08 08:45:09;;;;;;;7.45;2.75;;;;;;;17.06;56.52;101213.25;5091542;28;20128;-57
2023/10/08 08:47:35;;;;;;;7.03;2.90;;;;;;;17.04;56.42;101211.78;5091805;28;20043;-57
2023/10/08 08:50:08;;;;;;;6.75;3.13;;;;;;;17.15;55.62;101218.47;5091815;28;20090;-59
2023/10/08 08:52:37;;;;;;;6.93;2.60;;;;;;;17.23;56.73;101215.69;5091566;28;20098;-59
2023/10/08 08:55:09;;;;;;;5.40;3.00;;;;;;;17.31;56.25;101218.22;5091506;28;20054;-57
2023/10/08 08:57:39;;;;;;;6.45;2.90;;;;;;;17.43;57.79;101216.69;5091675;28;20060;-57
2023/10/08 09:00:10;;;;;;;6.20;3.00;;;;;;;17.59;55.55;101213.69;5091733;28;20042;-58
2023/10/08 09:02:40;;;;;;;5.70;2.95;;;;;;;17.70;55.69;101217.72;5091591;28;20039;-58
2023/10/08 09:05:25;;;;;;;5.40;2.95;;;;;;;17.85;54.85;101220.31;5091273;28;20036;-58
2023/10/08 09:07:57;;;;;;;7.00;2.92;;;;;;;17.87;55.84;101213.72;5092985;28;20040;-58
2023/10/08 09:10:28;;;;;;;8.50;2.92;;;;;;;17.93;54.55;101217.50;5095330;28;20035;-57
2023/10/08 09:12:56;;;;;;;7.88;3.53;;;;;;;18.08;55.69;101220.06;5095312;28;20056;-59
2023/10/08 09:15:22;;;;;;;9.77;2.97;;;;;;;18.26;54.94;101216.84;5094908;28;20043;-59
2023/10/08 09:17:49;;;;;;;6.07;3.15;;;;;;;18.42;53.98;101219.19;5095240;28;20105;-59
2023/10/08 09:20:14;;;;;;;6.18;2.90;;;;;;;18.57;52.71;101197.44;5095070;28;20487;-57
2023/10/08 09:22:40;;;;;;;7.10;3.28;;;;;;;18.86;52.57;101190.94;5095139;28;20028;-58
2023/10/08 09:25:08;;;;;;;5.22;2.95;;;;;;;19.04;51.55;101193.88;5094932;28;20044;-59
2023/10/08 09:27:37;;;;;;;5.57;3.05;;;;;;;19.16;51.84;101197.59;5095126;28;20398;-57
2023/10/08 09:30:08;;;;;;;7.50;3.67;;;;;;;19.17;52.04;101199.28;5094982;28;20044;-58
2023/10/08 09:32:34;;;;;;;6.25;3.13;;;;;;;19.26;51.15;101202.59;5094945;28;20044;-58
2023/10/08 09:35:00;;;;;;;5.80;3.22;;;;;;;19.28;49.90;101208.63;5094833;28;20360;-59
2023/10/08 09:37:27;;;;;;;5.57;2.83;;;;;;;19.29;51.79;101202.16;5094771;28;20036;-57
2023/10/08 09:39:54;;;;;;;7.07;3.35;;;;;;;19.64;51.87;101197.44;5094794;28;20085;-58
2023/10/08 09:42:22;;;;;;;8.65;3.03;;;;;;;19.87;50.23;101194.25;5094715;28;20042;-58
2023/10/08 09:44:47;;;;;;;5.65;3.03;;;;;;;20.20;50.51;101199.56;5094577;28;20032;-59
2023/10/08 09:47:21;;;;;;;6.88;3.05;;;;;;;20.63;49.48;101198.16;5094757;28;20044;-58
2023/10/08 09:50:07;;;;;;;6.32;2.80;;;;;;;20.93;49.37;101199.25;5094640;28;20032;-57
2023/10/08 09:52:44;;;;;;;6.05;2.65;;;;;;;21.51;48.69;101200.88;5094523;28;20036;-57
2023/10/08 09:55:10;;;;;;;5.22;2.80;;;;;;;21.88;46.33;101191.75;5094319;28;20391;-58
2023/10/08 09:57:36;;;;;;;5.47;2.70;;;;;;;22.45;45.79;101189.66;5094509;28;20043;-58
2023/10/08 10:00:04;;;;;;;9.48;3.55;;;;;;;23.15;44.30;101185.56;5094462;28;20055;-57
2023/10/08 10:02:32;;;;;;;5.90;2.90;;;;;;;23.76;43.99;101190.56;5094433;28;20028;-54
2023/10/08 10:04:57;;;;;;;5.85;3.30;;;;;;;24.08;41.19;101201.88;5094226;28;20533;-58
2023/10/08 10:07:25;;;;;;;7.10;2.72;;;;;;;24.37;40.93;101196.50;5094184;28;20047;-57
2023/10/08 10:09:53;;;;;;;5.88;2.75;;;;;;;24.76;40.50;101203.00;5094283;28;20394;-58
2023/10/08 10:12:30;;;;;;;8.77;2.80;;;;;;;25.12;40.98;101200.94;5094116;28;20075;-57
2023/10/08 10:14:56;;;;;;;;;;;;;;;25.45;41.34;101205.56;5094372;28;20475;-55
2023/10/08 10:17:25;;;;;;;5.55;3.03;;;;;;;25.58;41.35;101210.69;5094106;28;19916;-56
2023/10/08 10:19:54;;;;;;;6.25;3.53;;;;;;;25.76;39.27;101206.06;5089754;28;20024;-56
2023/10/08 10:22:34;;;;;;;6.57;3.10;;;;;;;26.25;38.31;101191.44;5083994;28;20467;-57
2023/10/08 10:25:04;;;;;;;4.95;2.50;;;;;;;26.67;38.60;101196.31;5083806;28;20415;-56
2023/10/08 10:27:30;;;;;;;8.20;3.17;;;;;;;26.82;39.73;101192.09;5082455;28;20081;-57
2023/10/08 10:30:08;;;;;;;8.23;3.50;;;;;;;27.07;38.83;101197.81;5083544;28;20012;-58
2023/10/08 10:32:36;;;;;;;5.13;2.55;;;;;;;27.36;36.83;101187.38;5083658;28;20020;-58
2023/10/08 10:35:06;;;;;;;7.57;3.03;;;;;;;27.52;36.37;101193.81;5083873;28;20142;-57
2023/10/08 10:37:52;;;;;;;6.30;2.97;;;;;;;27.54;36.38;101195.19;5082517;28;20028;-57
2023/10/08 10:40:40;;;;;;;6.78;3.38;;;;;;;27.44;36.36;101192.34;5083355;28;20036;-50
2023/10/08 10:43:07;;;;;;;7.20;3.08;;;;;;;27.67;37.16;101199.38;5083244;28;20059;-54
2023/10/08 10:45:36;;;;;;;6.13;3.00;;;;;;;27.98;37.99;101202.31;5082413;28;20059;-53
2023/10/08 10:48:13;;;;;;;7.78;3.00;;;;;;;28.41;36.67;101200.31;5082013;28;20075;-58
2023/10/08 10:50:48;;;;;;;6.72;2.97;;;;;;;28.57;37.45;101197.38;5087704;28;20062;-56
2023/10/08 10:53:26;;;;;;;13.02;3.90;;;;;;;28.35;35.39;101194.00;5087767;28;20391;-57
2023/10/08 10:56:09;;;;;;;8.55;3.10;;;;;;;28.44;34.87;101192.41;5093411;28;20089;-56
2023/10/08 10:58:41;;;;;;;8.20;3.53;;;;;;;28.28;35.62;101188.75;5093356;28;20036;-55
2023/10/08 11:01:24;;;;;;;9.35;3.20;;;;;;;28.26;35.75;101190.13;5093365;28;20036;-58
2023/10/08 11:03:51;;;;;;;5.78;3.08;;;;;;;28.60;35.08;101187.78;5093003;28;20040;-57
2023/10/08 11:06:25;;;;;;;8.43;3.42;;;;;;;28.20;35.59;101178.31;5093042;28;20132;-60
2023/10/08 11:08:52;;;;;;;7.28;3.42;;;;;;;28.64;34.82;101165.03;5093156;28;20506;-58
2023/10/08 11:11:18;;;;;;;;;;;;;;;28.66;34.99;101159.28;5093408;28;20546;-60
2023/10/08 11:13:46;;;;;;;7.78;3.55;;;;;;;29.06;35.27;101149.47;5092729;28;20049;-58
2023/10/08 11:16:13;;;;;;;5.60;3.15;;;;;;;29.31;33.99;101146.69;5092771;28;20495;-57
2023/10/08 11:18:50;;;;;;;;;;;;;;;29.42;34.17;101147.53;5093339;28;20047;-60
2023/10/08 11:21:16;;;;;;;6.57;3.20;;;;;;;29.68;33.64;101151.88;5092810;28;19911;-56
2023/10/08 11:23:52;;;;;;;8.73;4.03;;;;;;;30.14;33.27;101146.22;5092534;28;20115;-59
2023/10/08 11:26:19;;;;;;;6.97;3.10;;;;;;;30.42;32.52;101147.44;5092769;28;20536;-58
2023/10/08 11:28:47;;;;;;;7.43;3.17;;;;;;;30.24;31.37;101139.84;5092725;28;20035;-57
2023/10/08 11:31:20;;;;;;;10.68;3.35;;;;;;;30.28;32.35;101140.94;5092185;28;20047;-59
2023/10/08 11:33:56;;;;;;;6.35;3.00;;;;;;;30.13;32.02;101138.28;5092371;28;20048;-58
2023/10/08 11:36:29;;;;;;;11.55;4.43;;;;;;;30.04;31.34;101131.69;5092609;28;20036;-59
2023/10/08 11:39:08;;;;;;;7.68;3.53;;;;;;;30.02;32.88;101144.88;5092522;28;20487;-58
2023/10/08 11:41:52;;;;;;;6.65;3.40;;;;;;;29.65;32.23;101144.19;5092435;28;20554;-61
2023/10/08 11:44:23;;;;;;;5.57;2.90;;;;;;;29.68;31.87;101142.81;5091863;28;20131;-60
2023/10/08 11:46:51;;;;;;;7.68;3.25;;;;;;;29.65;32.25;101148.84;5092387;28;20161;-60
2023/10/08 11:49:18;;;;;;;10.23;3.35;;;;;;;29.59;32.11;101138.97;5092936;28;20455;-59
2023/10/08 11:51:45;;;;;;;7.13;3.17;;;;;;;30.07;32.18;101131.97;5092295;28;20048;-57
2023/10/08 11:54:14;;;;;;;9.60;4.03;;;;;;;29.97;31.39;101134.72;5092074;28;20506;-58
2023/10/08 11:56:40;;;;;;;8.85;3.78;;;;;;;30.06;31.24;101134.97;5092207;28;20120;-58
2023/10/08 11:59:08;;;;;;;9.65;3.50;;;;;;;29.95;31.20;101132.28;5092447;28;20063;-56
2023/10/08 12:01:41;;;;;;;8.43;3.78;;;;;;;30.32;31.49;101130.19;5092329;28;20065;-59
2023/10/08 12:04:12;;;;;;;6.35;3.33;;;;;;;30.07;31.86;101131.97;5087617;28;20028;-58
2023/10/08 12:06:42;;;;;;;6.68;3.20;;;;;;;30.41;30.75;101114.75;5092157;28;20036;-59
2023/10/08 12:09:12;;;;;;;8.82;4.05;;;;;;;30.46;30.51;101118.31;5092105;28;20047;-57
2023/10/08 12:11:39;;;;;;;8.70;3.55;;;;;;;30.70;30.36;101128.59;5091985;28;20039;-56
2023/10/08 12:14:05;;;;;;;9.02;4.03;;;;;;;31.14;30.76;101113.91;5091822;28;20081;-59
2023/10/08 12:16:35;;;;;;;13.13;4.05;;;;;;;31.19;30.04;101120.19;5092015;28;20040;-59
2023/10/08 12:19:01;;;;;;;9.90;4.22;;;;;;;30.79;31.02;101118.63;5092349;28;20060;-58
2023/10/08 12:21:31;;;;;;;12.23;3.75;;;;;;;31.21;29.90;101117.97;5091821;28;20535;-57
2023/10/08 12:23:58;;;;;;;6.90;3.67;;;;;;;30.79;29.69;101118.63;5091703;28;20032;-57
2023/10/08 12:26:23;;;;;;;;;;;;;;;30.72;29.35;101113.47;5092109;28;20498;-59
2023/10/08 12:28:49;;;;;;;9.20;3.87;;;;;;;30.92;29.41;101114.41;5091938;28;20006;-58
2023/10/08 12:31:24;;;;;;;8.33;3.37;;;;;;;30.94;29.35;101113.00;5091687;28;20139;-58
2023/10/08 12:33:53;;;;;;;10.50;4.15;;;;;;;30.36;30.21;101112.84;5091663;28;20032;-58
2023/10/08 12:36:22;;;;;;;9.70;3.53;;;;;;;31.00;30.63;101109.09;5091754;28;20040;-59
2023/10/08 12:38:48;;;;;;;9.57;4.18;;;;;;;31.06;29.97;101107.94;5091911;28;20711;-57
2023/10/08 12:41:16;;;;;;;9.75;4.18;;;;;;;30.98;31.06;101114.06;5091780;28;20036;-58
2023/10/08 12:43:45;;;;;;;8.85;4.00;;;;;;;30.98;29.86;101107.75;5094361;28;20036;-58
2023/10/08 12:46:18;;;;;;;10.80;4.10;;;;;;;31.51;29.31;101105.84;5095732;28;20115;-60
2023/10/08 12:48:47;;;;;;;11.98;4.10;;;;;;;31.59;29.90;101102.44;5096148;28;20036;-58
2023/10/08 12:51:14;;;;;;;9.13;3.58;;;;;;;31.39;30.09;101099.94;5095699;28;20020;-60
2023/10/08 12:53:39;;;;;;;12.40;3.80;;;;;;;31.33;29.73;101099.16;5095365;28;20044;-61
2023/10/08 12:56:06;;;;;;;8.53;4.10;;;;;;;31.23;30.01;101091.00;5095528;28;20043;-56
2023/10/08 12:58:43;;;;;;;;;;;;;;;31.34;29.68;101088.97;5096011;28;20507;-59
2023/10/08 13:01:10;;;;;;;11.10;3.78;;;;;;;31.70;29.63;101088.56;5095650;28;20381;-57
2023/10/08 13:03:41;;;;;;;14.73;4.43;;;;;;;31.47;29.55;101085.53;5095311;28;20040;-59
2023/10/08 13:06:14;;;;;;;10.30;4.10;;;;;;;31.74;29.23;101078.59;5095325;28;20483;-61
2023/10/08 13:08:40;;;;;;;12.45;4.78;;;;;;;31.84;29.74;101082.06;5095428;28;20063;-58
2023/10/08 13:11:06;;;;;;;12.27;4.30;;;;;;;31.63;29.39;101077.09;5095430;28;20121;-60
2023/10/08 13:13:32;;;;;;;9.40;4.47;;;;;;;31.74;29.60;101081.34;5095195;28;20426;-58
2023/10/08 13:16:02;;;;;;;14.50;4.45;;;;;;;31.25;30.07;101085.22;5095300;28;20388;-59
2023/10/08 13:18:28;;;;;;;11.00;3.75;;;;;;;31.51;30.01;101075.56;5095232;28;20032;-59
2023/10/08 13:20:53;;;;;;;11.30;3.93;;;;;;;31.02;30.50;101075.78;5095156;28;20611;-58
2023/10/08 13:23:23;;;;;;;10.83;4.23;;;;;;;30.37;31.62;101066.97;5094918;28;20032;-58
2023/10/08 13:26:04;;;;;;;12.30;4.78;;;;;;;30.60;31.71;101074.50;5094981;28;20040;-59
2023/10/08 13:28:33;;;;;;;10.30;4.13;;;;;;;29.94;33.04;101078.47;5095089;28;20040;-58
2023/10/08 13:31:09;;;;;;;9.43;3.65;;;;;;;29.77;33.70;101077.16;5094996;28;20093;-58
2023/10/08 13:33:48;;;;;;;13.07;3.90;;;;;;;29.27;33.92;101082.50;5094769;28;20678;-55
2023/10/08 13:36:15;;;;;;;12.38;3.97;;;;;;;28.86;35.15;101077.06;5094964;28;20044;-58
2023/10/08 13:38:40;;;;;;;;;;;;;;;28.89;35.04;101082.00;5095386;28;20032;-58
2023/10/08 13:41:15;;;;;;;13.30;4.53;;;;;;;28.56;35.13;101079.78;5094937;28;19915;-56
2023/10/08 13:43:48;;;;;;;8.52;3.83;;;;;;;28.43;35.18;101072.09;5093366;28;20040;-59
2023/10/08 13:46:22;;;;;;;10.30;3.92;;;;;;;28.15;36.49;101071.47;5094703;28;20422;-54
2023/10/08 13:48:48;;;;;;;12.48;4.38;;;;;;;27.88;36.94;101066.19;5094739;28;20043;-59
2023/10/08 13:51:25;;;;;;;12.20;4.77;;;;;;;27.82;35.92;101059.88;5094632;28;20040;-54
2023/10/08 13:54:02;;;;;;;12.02;4.65;;;;;;;27.54;37.42;101061.13;5094009;28;20059;-55
2023/10/08 13:56:30;;;;;;;10.63;3.97;;;;;;;27.30;37.21;101066.19;5094785;28;20394;-59
2023/10/08 13:59:11;;;;;;;11.45;4.45;;;;;;;27.14;37.79;101064.44;5094557;28;20130;-56
2023/10/08 14:01:40;;;;;;;14.02;6.35;;;;;;;27.15;37.43;101059.81;5094499;28;20045;-57
2023/10/08 14:04:07;;;;;;;13.30;5.57;;;;;;;26.94;38.08;101064.28;5094160;28;20032;-59
2023/10/08 14:06:34;;;;;;;11.80;4.68;;;;;;;26.77;38.01;101065.25;5090505;28;20039;-58
2023/10/08 14:09:00;;;;;;;12.45;4.75;;;;;;;26.78;38.42;101063.31;5094039;28;20560;-59
2023/10/08 14:11:30;;;;;;;10.32;4.00;;;;;;;26.78;39.70;101058.69;5094137;28;20082;-60
2023/10/08 14:14:02;;;;;;;15.40;5.28;;;;;;;26.73;38.85;101049.63;5093761;28;20522;-58
2023/10/08 14:16:28;;;;;;;13.45;4.47;;;;;;;26.61;38.51;101052.56;5094086;28;20035;-56
2023/10/08 14:18:55;;;;;;;11.23;4.63;;;;;;;26.40;38.40;101053.44;5094159;28;20191;-57
2023/10/08 14:21:24;;;;;;;10.32;5.22;;;;;;;26.27;39.13;101043.72;5094081;28;20497;-52
2023/10/08 14:23:52;;;;;;;13.38;4.55;;;;;;;26.31;40.11;101035.84;5093760;28;20051;-52
2023/10/08 14:26:21;;;;;;;9.00;4.25;;;;;;;26.16;39.76;101031.88;5093998;28;20047;-55
2023/10/08 14:28:53;;;;;;;8.73;4.32;;;;;;;26.11;40.42;101033.75;5093976;28;20085;-54
2023/10/08 14:31:22;;;;;;;9.50;4.63;;;;;;;26.00;40.01;101034.72;5093925;28;20539;-57
2023/10/08 14:34:19;;;;;;;11.48;4.68;;;;;;;25.99;40.86;101039.34;5093648;28;20036;-52
2023/10/08 14:44:58;;;;;;;12.32;5.15;;;;;;;25.74;41.05;101023.50;5094515;28;20036;-56
2023/10/08 14:47:23;;;;;;;12.45;5.00;;;;;;;25.64;41.05;101026.91;5094065;28;20090;-54
2023/10/08 14:49:49;;;;;;;12.65;4.75;;;;;;;25.71;41.05;101024.81;5093568;28;20035;-55
2023/10/08 14:52:14;;;;;;;14.13;6.63;;;;;;;25.73;41.03;101023.78;5093367;28;20395;-55
2023/10/08 14:54:40;;;;;;;10.02;3.97;;;;;;;25.70;40.60;101019.63;5093150;28;20123;-53
2023/10/08 14:57:07;;;;;;;11.15;5.75;;;;;;;25.58;41.78;101013.47;5093342;28;20032;-53
2023/10/08 14:59:32;;;;;;;15.00;4.70;;;;;;;25.41;41.99;101013.53;5093375;28;20077;-56
2023/10/08 15:01:58;;;;;;;12.60;4.82;;;;;;;25.39;41.57;101002.06;5093464;28;20510;-53
2023/10/08 15:04:28;;;;;;;12.52;5.10;;;;;;;25.33;41.27;101000.34;5092851;28;20039;-54
2023/10/08 15:06:55;;;;;;;9.35;4.07;;;;;;;25.31;40.97;101008.78;5092429;28;20078;-54
2023/10/08 15:09:23;;;;;;;13.55;6.32;;;;;;;25.35;41.81;101003.63;5093182;28;20096;-56
2023/10/08 15:11:52;;;;;;;10.77;5.72;;;;;;;25.30;41.49;101007.13;5093006;28;20036;-53
2023/10/08 15:14:23;;;;;;;8.45;3.70;;;;;;;25.25;41.39;101001.59;5092884;28;20080;-52
2023/10/08 15:16:52;;;;;;;11.48;4.05;;;;;;;25.22;41.49;101001.28;5092922;28;20101;-52
2023/10/08 15:19:21;;;;;;;9.13;4.10;;;;;;;25.18;41.56;100998.25;5093088;28;20044;-52
2023/10/08 15:21:50;;;;;;;9.25;4.47;;;;;;;25.14;41.43;100999.81;5083809;28;20487;-59
2023/10/08 15:24:23;;;;;;;16.52;6.45;;;;;;;25.07;42.21;101004.63;5064278;28;20024;-60
2023/10/08 15:26:52;;;;;;;10.50;4.57;;;;;;;25.02;41.90;100999.88;5083489;28;20455;-59
2023/10/08 15:29:27;;;;;;;11.85;4.40;;;;;;;24.95;41.43;101001.97;5083422;28;20039;-60
2023/10/08 15:31:54;;;;;;;15.90;5.30;;;;;;;24.89;41.90;100994.78;5084232;28;20402;-58
2023/10/08 15:34:23;;;;;;;12.70;4.30;;;;;;;24.83;41.68;100996.59;5083552;28;20047;-56
2023/10/08 15:36:52;;;;;;;10.50;4.10;;;;;;;24.70;42.04;100988.78;5082448;28;20036;-55
2023/10/08 15:39:23;;;;;;;9.98;3.90;;;;;;;24.66;41.73;100984.91;5081422;28;20032;-58
2023/10/08 15:41:50;;;;;;;12.45;4.63;;;;;;;24.60;42.73;100984.00;5081840;28;20051;-58
2023/10/08 15:44:21;;;;;;;9.10;4.40;;;;;;;24.54;42.09;100978.72;5081352;28;20023;-52
2023/10/08 15:46:47;;;;;;;9.95;3.75;;;;;;;24.54;42.12;100985.00;5082535;28;20040;-54
2023/10/08 15:49:19;;;;;;;8.32;3.50;;;;;;;24.43;41.81;100988.63;5082097;28;20395;-54
2023/10/08 15:51:46;;;;;;;12.05;5.00;;;;;;;24.37;41.96;100986.88;5075970;28;20040;-53
2023/10/08 15:54:12;;;;;;;16.00;4.47;;;;;;;24.33;42.23;100994.72;5081321;28;20111;-56
2023/10/08 15:56:38;;;;;;;13.90;4.20;;;;;;;24.27;42.44;100983.97;5082467;28;20089;-56
2023/10/08 15:59:03;;;;;;;11.57;5.05;;;;;;;24.20;42.44;100984.13;5080601;28;20036;-55
2023/10/08 16:01:28;;;;;;;11.95;4.03;;;;;;;24.15;42.29;100985.94;5082062;28;20040;-58
2023/10/08 16:03:54;;;;;;;10.65;4.15;;;;;;;24.05;42.85;100984.66;5081785;28;20544;-54
2023/10/08 16:06:20;;;;;;;14.10;4.35;;;;;;;24.03;42.92;100989.53;5080768;28;20049;-57
2023/10/08 16:08:46;;;;;;;11.98;3.90;;;;;;;23.95;42.74;100989.94;5080714;28;20093;-54
2023/10/08 16:11:12;;;;;;;18.97;5.37;;;;;;;23.83;43.37;100992.69;5081693;28;20066;-58
2023/10/08 16:13:39;;;;;;;10.25;4.28;;;;;;;23.82;43.46;100995.66;5080951;28;20036;-56
2023/10/08 16:16:08;;;;;;;10.45;4.30;;;;;;;23.76;43.61;100991.19;5091824;28;20052;-58
2023/10/08 16:18:34;;;;;;;8.18;4.20;;;;;;;23.62;44.08;100987.94;5091983;28;20051;-56
2023/10/08 16:21:00;;;;;;;16.73;4.10;;;;;;;23.52;44.21;100996.66;5091908;28;20043;-58
2023/10/08 16:23:27;;;;;;;9.02;3.83;;;;;;;23.42;44.35;100996.47;5091766;28;20036;-55
2023/10/08 16:25:53;;;;;;;11.10;4.63;;;;;;;23.29;44.74;100992.13;5091995;28;20041;-55